地図

経路データ

SID SEASON NUMBER BASIN SUBBASIN NAME ISO_TIME NATURE LAT LON WMO_WIND WMO_PRES WMO_AGENCY TRACK_TYPE DIST2LAND LANDFALL IFLAG USA_AGENCY USA_ATCF_ID USA_LAT USA_LON USA_RECORD USA_STATUS USA_WIND USA_PRES USA_SSHS USA_R34_NE USA_R34_SE USA_R34_SW USA_R34_NW USA_R50_NE USA_R50_SE USA_R50_SW USA_R50_NW USA_R64_NE USA_R64_SE USA_R64_SW USA_R64_NW USA_POCI USA_ROCI USA_RMW USA_EYE TOKYO_LAT TOKYO_LON TOKYO_GRADE TOKYO_WIND TOKYO_PRES TOKYO_R50_DIR TOKYO_R50_LONG TOKYO_R50_SHORT TOKYO_R30_DIR TOKYO_R30_LONG TOKYO_R30_SHORT TOKYO_LAND CMA_LAT CMA_LON CMA_CAT CMA_WIND CMA_PRES HKO_LAT HKO_LON HKO_CAT HKO_WIND HKO_PRES NEWDELHI_LAT NEWDELHI_LON NEWDELHI_GRADE NEWDELHI_WIND NEWDELHI_PRES NEWDELHI_CI NEWDELHI_DP NEWDELHI_POCI REUNION_LAT REUNION_LON REUNION_TYPE REUNION_WIND REUNION_PRES REUNION_TNUM REUNION_CI REUNION_RMW REUNION_R34_NE REUNION_R34_SE REUNION_R34_SW REUNION_R34_NW REUNION_R50_NE REUNION_R50_SE REUNION_R50_SW REUNION_R50_NW REUNION_R64_NE REUNION_R64_SE REUNION_R64_SW REUNION_R64_NW BOM_LAT BOM_LON BOM_TYPE BOM_WIND BOM_PRES BOM_TNUM BOM_CI BOM_RMW BOM_R34_NE BOM_R34_SE BOM_R34_SW BOM_R34_NW BOM_R50_NE BOM_R50_SE BOM_R50_SW BOM_R50_NW BOM_R64_NE BOM_R64_SE BOM_R64_SW BOM_R64_NW BOM_ROCI BOM_POCI BOM_EYE BOM_POS_METHOD BOM_PRES_METHOD NADI_LAT NADI_LON NADI_CAT NADI_WIND NADI_PRES WELLINGTON_LAT WELLINGTON_LON WELLINGTON_WIND WELLINGTON_PRES DS824_LAT DS824_LON DS824_STAGE DS824_WIND DS824_PRES TD9636_LAT TD9636_LON TD9636_STAGE TD9636_WIND TD9636_PRES TD9635_LAT TD9635_LON TD9635_WIND TD9635_PRES TD9635_ROCI NEUMANN_LAT NEUMANN_LON NEUMANN_CLASS NEUMANN_WIND NEUMANN_PRES MLC_LAT MLC_LON MLC_CLASS MLC_WIND MLC_PRES USA_GUST BOM_GUST BOM_GUST_PER REUNION_GUST REUNION_GUST_PER USA_SEAHGT USA_SEARAD_NE USA_SEARAD_SE USA_SEARAD_SW USA_SEARAD_NW STORM_SPEED STORM_DIR
1992172N07144 1992 40 WP MM BOBBIE 1992-06-20 06:00:00 NR 7.20000 143.600 main 1094 1094 O_____________ jtwc_wp WP021992 7.20000 143.600 15 -1 10 300
1992172N07144 1992 40 WP MM BOBBIE 1992-06-20 09:00:00 NR 7.46009 143.150 main 1140 1140 P_____________ WP021992 7.46009 143.150 15 -1 10 299
1992172N07144 1992 40 WP MM BOBBIE 1992-06-20 12:00:00 NR 7.70000 142.700 main 1153 1149 O_____________ jtwc_wp WP021992 7.70000 142.700 15 -1 10 297
1992172N07144 1992 40 WP MM BOBBIE 1992-06-20 15:00:00 NR 7.90745 142.250 main 1153 1151 P_____________ WP021992 7.90745 142.250 15 -1 10 294
1992172N07144 1992 40 WP MM BOBBIE 1992-06-20 18:00:00 NR 8.10000 141.800 main 1158 1154 O_____________ jtwc_wp WP021992 8.10000 141.800 15 -1 10 294
1992172N07144 1992 40 WP MM BOBBIE 1992-06-20 21:00:00 NR 8.29995 141.350 main 1161 1158 P_____________ WP021992 8.29995 141.350 15 -1 10 294
1992172N07144 1992 40 WP MM BOBBIE 1992-06-21 00:00:00 NR 8.50000 140.900 main 1170 1167 O_____________ jtwc_wp WP021992 8.50000 140.900 15 -1 10 295
1992172N07144 1992 40 WP MM BOBBIE 1992-06-21 03:00:00 NR 8.70742 140.457 main 1180 1172 P_____________ WP021992 8.70742 140.457 15 -1 10 294
1992172N07144 1992 40 WP MM BOBBIE 1992-06-21 06:00:00 NR 8.90000 140.000 main 1178 1172 O_____________ jtwc_wp WP021992 8.90000 140.000 15 -1 10 291
1992172N07144 1992 40 WP MM BOBBIE 1992-06-21 09:00:00 NR 9.06496 139.507 main 1178 1168 P_____________ WP021992 9.06496 139.507 17 -1 10 287
1992172N07144 1992 40 WP MM BOBBIE 1992-06-21 12:00:00 NR 9.20000 139.000 main 1171 1164 O_____________ jtwc_wp WP021992 9.20000 139.000 20 -1 10 284
1992172N07144 1992 40 WP MM BOBBIE 1992-06-21 15:00:00 NR 9.31493 138.500 main 1165 1159 P_____________ WP021992 9.31493 138.500 20 -1 10 281
1992172N07144 1992 40 WP MM BOBBIE 1992-06-21 18:00:00 NR 9.40000 138.000 main 1162 1155 O_____________ jtwc_wp WP021992 9.40000 138.000 20 -1 10 279
1992172N07144 1992 40 WP MM BOBBIE 1992-06-21 21:00:00 NR 9.46493 137.500 main 1162 1153 P_____________ WP021992 9.46493 137.500 20 -1 10 276
1992172N07144 1992 40 WP MM BOBBIE 1992-06-22 00:00:00 NR 9.50000 137.000 main 1153 1107 O_____________ jtwc_wp WP021992 9.50000 137.000 20 -1 10 272
1992172N07144 1992 40 WP MM BOBBIE 1992-06-22 03:00:00 NR 9.50739 136.507 main 1107 1053 P_____________ WP021992 9.50739 136.507 20 -1 10 270
1992172N07144 1992 40 WP MM BOBBIE 1992-06-22 06:00:00 NR 9.50000 136.000 main 1053 999 O_____________ jtwc_wp WP021992 9.50000 136.000 20 -1 10 269
1992172N07144 1992 40 WP MM BOBBIE 1992-06-22 09:00:00 NR 9.49248 135.450 main 989 905 P_____________ WP021992 9.49248 135.450 22 -1 14 276
1992172N07144 1992 40 WP MM BOBBIE 1992-06-22 12:00:00 NR 9.64000 134.600 main 905 847 O__O__________ jtwc_wp WP021992 9.50000 134.900 25 -1 10.2000 133.400 TD 25 1000 15 281
1992172N07144 1992 40 WP MM BOBBIE 1992-06-22 15:00:00 NR 9.76994 133.995 main 847 797 P__P__________ WP021992 9.53490 134.392 25 -1 10.2400 133.200 TD 25 1000 11 284
1992172N07144 1992 40 WP MM BOBBIE 1992-06-22 18:00:00 NR 9.90000 133.514 main 797 758 O__O__________ jtwc_wp WP021992 9.60000 133.900 25 -1 10.3000 133.000 TD 25 1000 9 287
1992172N07144 1992 40 WP MM BOBBIE 1992-06-22 21:00:00 NR 10.0387 133.096 main 758 728 P__P__________ WP021992 9.68496 133.392 25 -1 10.3925 132.800 TD 25 1000 8 288
1992172N07144 1992 40 WP MM BOBBIE 1992-06-23 00:00:00 NR 10.1500 132.750 main 730 687 O__O__________ jtwc_wp WP021992 9.80000 132.900 25 -1 10.5000 132.600 TD 25 1000 7 288
1992172N07144 1992 40 WP MM BOBBIE 1992-06-23 03:00:00 NR 10.2600 132.402 main 690 660 P__P__________ WP021992 9.92003 132.405 25 -1 10.6000 132.400 TD 27 997 7 291
1992172N07144 1992 40 WP MM BOBBIE 1992-06-23 06:00:00 NR 10.4000 132.100 main 660 641 O__O__________ jtwc_wp WP021992 10.1000 132.000 25 -1 10.7000 132.200 TD 30 995 6 302
1992172N07144 1992 40 WP MM BOBBIE 1992-06-23 09:00:00 NR 10.5925 131.870 main 644 607 P__P__________ WP021992 10.3849 131.748 27 -1 10.8000 131.992 TD 32 992 8 307
1992172N07144 1992 40 WP MM BOBBIE 1992-06-23 12:00:00 TS 10.8800 131.460 1002 tokyo main 611 593 OOOO__________ jtwc_wp WP021992 10.7000 131.600 30 -1 11.2000 130.500 2 1002 0 0 0 11.2000 130.500 1 29 1000 10.9000 131.800 TS 35 990 8 310
1992172N07144 1992 40 WP MM BOBBIE 1992-06-23 15:00:00 TS 11.0883 131.265 main 597 587 PPPP__________ WP021992 10.9650 131.485 30 -1 11.3000 130.663 2 1002 0 0 11.3000 130.655 1 29 1000 11.0000 131.650 TS 35 990 5 323
1992172N07144 1992 40 WP MM BOBBIE 1992-06-23 18:00:00 TS 11.2571 131.171 1002 tokyo main 590 579 OOOO__________ jtwc_wp WP021992 11.2000 131.400 30 -1 11.4000 130.800 2 1002 0 0 0 11.4000 130.800 1 29 1000 11.1000 131.500 TS 35 990 4 334
1992172N07144 1992 40 WP MM BOBBIE 1992-06-23 21:00:00 TS 11.4019 131.107 1002 tokyo main 580 580 POPP__________ WP021992 11.4150 131.307 32 -1 11.5000 130.900 2 1002 0 0 0 11.5000 130.923 1 29 1000 11.1925 131.300 TS 37 990 3 340
1992172N07144 1992 40 WP MM BOBBIE 1992-06-24 00:00:00 TS 11.5250 131.075 1002 tokyo main 581 571 OOOO__________ jtwc_wp WP021992 11.6000 131.200 35 0 11.6000 131.000 2 1002 0 0 0 11.6000 131.000 1 29 1000 11.3000 131.100 TS 40 990 3 339
1992172N07144 1992 40 WP MM BOBBIE 1992-06-24 03:00:00 TS 11.6443 131.019 35 1000 tokyo main 571 563 POPP__________ WP021992 11.7500 131.080 35 0 11.7000 131.000 3 35 1000 0 9 60 60 0 11.6925 131.037 1 33 997 11.4350 130.957 TS 40 990 3 329
1992172N07144 1992 40 WP MM BOBBIE 1992-06-24 06:00:00 TS 11.7750 130.925 35 1000 tokyo main 563 554 OOOO__________ jtwc_wp WP021992 11.9000 130.900 35 0 11.8000 131.000 3 35 1000 0 9 60 60 0 11.8000 131.000 2 38 995 11.6000 130.800 TS 40 990 4 317
1992172N07144 1992 40 WP MM BOBBIE 1992-06-24 09:00:00 TS 11.9256 130.755 main 554 526 PPPP__________ WP021992 12.0925 130.630 37 0 11.9124 130.921 3 37 999 0 9 75 75 11.9199 130.902 2 38 995 11.7775 130.565 TS 40 990 5 310
1992172N07144 1992 40 WP MM BOBBIE 1992-06-24 12:00:00 TS 12.1250 130.500 40 998 tokyo main 526 501 OOOO__________ jtwc_wp WP021992 12.3000 130.300 40 0 12.1000 130.700 3 40 998 0 9 90 90 0 12.1000 130.700 2 38 995 12.0000 130.300 TS 40 990 7 309
1992172N07144 1992 40 WP MM BOBBIE 1992-06-24 15:00:00 TS 12.3844 130.171 main 504 470 PPPP__________ WP021992 12.4775 129.957 42 0 12.4202 130.273 3 40 997 0 9 90 90 12.3625 130.387 2 38 992 12.2774 130.065 TS 40 990 9 310
1992172N07144 1992 40 WP MM BOBBIE 1992-06-24 18:00:00 TS 12.7000 129.800 40 996 tokyo main 470 441 OOOO__________ jtwc_wp WP021992 12.7000 129.600 45 0 12.8000 129.800 3 40 996 0 9 90 90 0 12.7000 130.000 2 38 990 12.6000 129.800 TS 40 990 10 313
1992172N07144 1992 40 WP MM BOBBIE 1992-06-24 21:00:00 TS 13.0449 129.452 main 443 413 PPPP__________ WP021992 13.0200 129.250 50 0 13.1396 129.500 3 42 993 0 9 105 105 13.0850 129.600 2 43 987 12.9350 129.457 TS 42 987 10 317
1992172N07144 1992 40 WP MM BOBBIE 1992-06-25 00:00:00 TS 13.4250 129.100 45 990 tokyo main 413 395 OOOO__________ jtwc_wp WP021992 13.4000 128.900 55 0 13.5000 129.200 3 45 990 0 9 120 120 0 13.5000 129.200 3 48 985 13.3000 129.100 TS 45 985 10 319
1992172N07144 1992 40 WP MM BOBBIE 1992-06-25 03:00:00 TS 13.8249 128.748 50 985 tokyo main 390 385 POPP__________ WP021992 13.7925 128.542 60 0 13.9000 128.800 4 50 985 0 9 120 120 0 13.9149 128.850 3 53 982 13.6924 128.800 TS 50 982 11 320
1992172N07144 1992 40 WP MM BOBBIE 1992-06-25 06:00:00 TS 14.2250 128.400 50 985 tokyo main 385 381 OOOO__________ jtwc_wp WP021992 14.2000 128.200 65 1 14.3000 128.400 4 50 985 0 9 120 120 0 14.3000 128.500 3 58 980 14.1000 128.500 STS 55 980 10 318
1992172N07144 1992 40 WP MM BOBBIE 1992-06-25 09:00:00 TS 14.5711 128.060 main 389 372 PPPP__________ WP021992 14.5999 127.900 67 1 14.5999 128.053 4 52 982 0 9 120 120 14.5924 128.115 3 58 980 14.4924 128.172 STS 60 975 10 316
1992172N07144 1992 40 WP MM BOBBIE 1992-06-25 12:00:00 TS 14.9250 127.700 55 980 tokyo main 372 349 OOOO__________ jtwc_wp WP021992 15.0000 127.600 70 1 14.9000 127.700 4 55 980 9 30 30 9 120 120 0 14.9000 127.700 3 58 980 14.9000 127.800 T 65 970 11 315
1992172N07144 1992 40 WP MM BOBBIE 1992-06-25 15:00:00 TS 15.3493 127.267 main 349 335 PPPP__________ WP021992 15.4000 127.250 72 1 15.3194 127.233 4 57 977 9 40 40 9 135 135 15.3276 127.235 3 58 977 15.3501 127.350 T 65 970 12 317
1992172N07144 1992 40 WP MM BOBBIE 1992-06-25 18:00:00 TS 15.8000 126.850 60 975 tokyo main 342 333 OOOO__________ jtwc_wp WP021992 15.8000 126.900 75 1 15.8000 126.800 4 60 975 9 50 50 9 150 150 0 15.8000 126.800 3 58 975 15.8000 126.900 T 65 970 11 321
1992172N07144 1992 40 WP MM BOBBIE 1992-06-25 21:00:00 TS 16.2411 126.528 65 970 tokyo main 341 341 POPP__________ WP021992 16.1999 126.592 80 1 16.3000 126.500 5 65 970 9 50 50 9 150 150 0 16.2573 126.485 3 63 972 16.2074 126.535 T 67 967 10 325
1992172N07144 1992 40 WP MM BOBBIE 1992-06-26 00:00:00 TS 16.6500 126.225 65 970 tokyo main 364 358 OOOO__________ jtwc_wp WP021992 16.6000 126.300 85 2 16.7000 126.200 5 65 970 9 50 50 9 160 160 0 16.7000 126.200 4 68 970 16.6000 126.200 T 70 965 10 322
1992172N07144 1992 40 WP MM BOBBIE 1992-06-26 03:00:00 TS 17.0555 125.871 main 361 321 PPPP__________ WP021992 16.9999 126.007 90 2 17.1070 125.793 5 67 965 9 60 60 9 165 165 17.1150 125.842 4 68 967 17.0000 125.842 T 72 962 10 320
1992172N07144 1992 40 WP MM BOBBIE 1992-06-26 06:00:00 TS 17.4500 125.525 70 960 tokyo main 323 307 OOOO__________ jtwc_wp WP021992 17.4000 125.700 95 2 17.5000 125.400 5 70 960 9 70 70 9 170 170 0 17.5000 125.500 4 68 965 17.4000 125.500 T 75 960 10 322
1992172N07144 1992 40 WP MM BOBBIE 1992-06-26 09:00:00 TS 17.8174 125.240 main 300 285 PPPP__________ WP021992 17.7926 125.335 102 3 17.8423 125.192 5 75 955 9 75 75 9 170 170 17.8423 125.250 4 72 962 17.7924 125.185 T 77 957 9 325
1992172N07144 1992 40 WP MM BOBBIE 1992-06-26 12:00:00 TS 18.2000 124.975 80 950 tokyo main 285 253 OOOO__________ jtwc_wp WP021992 18.2000 125.000 110 3 18.2000 125.000 5 80 950 9 80 80 9 170 170 0 18.2000 125.000 4 77 960 18.2000 124.900 T 80 955 10 326
1992172N07144 1992 40 WP MM BOBBIE 1992-06-26 15:00:00 TS 18.6332 124.656 main 254 231 PPPP__________ WP021992 18.6424 124.777 115 4 18.6278 124.613 5 82 947 9 80 80 9 170 170 18.6277 124.620 4 82 955 18.6350 124.613 T 82 952 11 329
1992172N07144 1992 40 WP MM BOBBIE 1992-06-26 18:00:00 TS 19.1000 124.400 85 945 tokyo main 234 233 OOOO__________ jtwc_wp WP021992 19.1000 124.600 120 4 19.1000 124.300 5 85 945 9 80 80 9 170 170 0 19.1000 124.300 5 87 950 19.1000 124.400 ST 85 950 10 341
1992172N07144 1992 40 WP MM BOBBIE 1992-06-26 21:00:00 TS 19.5799 124.318 main 249 249 PPPP__________ WP021992 19.5500 124.385 120 4 19.5849 124.334 5 87 942 9 85 85 9 175 175 19.5849 124.219 5 87 950 19.5999 124.335 ST 82 952 10 353
1992172N07144 1992 40 WP MM BOBBIE 1992-06-27 00:00:00 TS 20.0750 124.275 90 940 tokyo main 283 283 OOOO__________ jtwc_wp WP021992 20.0000 124.200 120 4 20.1000 124.400 5 90 940 9 90 90 9 180 180 0 20.1000 124.200 5 87 950 20.1000 124.300 T 80 955 10 349
1992172N07144 1992 40 WP MM BOBBIE 1992-06-27 03:00:00 TS 20.5866 124.113 main 310 310 PPPP__________ WP021992 20.4500 124.085 120 4 20.6740 124.161 5 90 940 9 90 90 9 180 180 20.6650 124.058 5 87 950 20.5575 124.150 T 77 955 11 343
1992172N07144 1992 40 WP MM BOBBIE 1992-06-27 06:00:00 TS 21.0750 123.950 90 940 tokyo main 332 302 OOOO__________ jtwc_wp WP021992 20.9000 124.000 120 4 21.2000 123.900 5 90 940 9 90 90 9 180 180 0 21.2000 123.900 5 87 950 21.0000 124.000 T 75 955 10 344
1992172N07144 1992 40 WP MM BOBBIE 1992-06-27 09:00:00 TS 21.5094 123.838 90 940 tokyo main 302 280 POPP__________ WP021992 21.3500 123.878 117 4 21.6000 123.800 5 90 940 9 90 90 3 240 180 0 21.6300 123.763 5 87 950 21.4575 123.913 T 75 955 8 349
1992172N07144 1992 40 WP MM BOBBIE 1992-06-27 12:00:00 TS 21.9000 123.775 90 940 tokyo main 280 261 OOOO__________ jtwc_wp WP021992 21.8000 123.800 115 4 21.9000 123.700 5 90 940 9 90 90 3 240 180 0 22.0000 123.700 5 87 950 21.9000 123.900 T 75 955 8 0
1992172N07144 1992 40 WP MM BOBBIE 1992-06-27 15:00:00 TS 22.3212 123.815 85 945 tokyo main 261 258 POPP__________ WP021992 22.2500 123.812 112 3 22.4000 123.700 5 85 945 9 80 80 3 240 150 0 22.3350 123.762 5 87 950 22.3000 123.985 T 72 957 8 10
1992172N07144 1992 40 WP MM BOBBIE 1992-06-27 18:00:00 TS 22.7000 123.925 85 945 tokyo main 259 258 OOOO__________ jtwc_wp WP021992 22.7000 123.900 110 3 22.7000 123.800 5 85 945 9 80 80 3 240 150 0 22.7000 123.900 5 87 950 22.7000 124.100 T 70 960 9 15
1992172N07144 1992 40 WP MM BOBBIE 1992-06-27 21:00:00 TS 23.1843 124.067 85 945 tokyo main 266 249 POPP__________ WP021992 23.1649 124.013 110 3 23.2000 124.100 5 85 945 9 80 80 3 240 140 0 23.2075 124.027 5 87 950 23.1649 124.128 T 70 960 10 15
1992172N07144 1992 40 WP MM BOBBIE 1992-06-28 00:00:00 TS 23.6500 124.200 85 945 tokyo main 249 245 OOOO__________ jtwc_wp WP021992 23.6000 124.200 110 3 23.7000 124.200 5 85 945 4 80 60 4 220 140 0 23.7000 124.200 5 87 950 23.6000 124.200 T 70 960 9 21
1992172N07144 1992 40 WP MM BOBBIE 1992-06-28 03:00:00 TS 23.9849 124.411 80 950 tokyo main 259 259 POPP__________ WP021992 23.9799 124.455 107 3 24.0000 124.400 5 80 950 4 80 60 4 220 140 0 24.0373 124.398 5 87 950 23.9224 124.390 T 72 960 8 38
1992172N07144 1992 40 WP MM BOBBIE 1992-06-28 06:00:00 TS 24.2750 124.725 80 950 tokyo main 283 283 OOOO__________ jtwc_wp WP021992 24.3000 124.800 105 3 24.3000 124.700 5 80 950 4 80 60 4 220 140 0 24.3000 124.700 5 87 950 24.2000 124.700 T 75 960 9 51
1992172N07144 1992 40 WP MM BOBBIE 1992-06-28 09:00:00 TS 24.5538 125.176 80 950 tokyo main 325 325 POPP__________ WP021992 24.5650 125.220 105 3 24.6000 125.200 5 80 950 4 80 60 4 220 140 0 24.5502 125.170 5 82 955 24.5000 125.113 T 75 960 10 59
1992172N07144 1992 40 WP MM BOBBIE 1992-06-28 12:00:00 TS 24.8000 125.675 80 950 tokyo main 373 373 OOOO__________ jtwc_wp WP021992 24.8000 125.700 105 3 24.8000 125.700 5 80 950 9 75 75 4 220 140 0 24.8000 125.700 4 77 960 24.8000 125.600 T 75 960 10 59
1992172N07144 1992 40 WP MM BOBBIE 1992-06-28 15:00:00 TS 25.0873 126.148 75 955 tokyo main 412 412 POPP__________ WP021992 25.0497 126.178 100 3 25.1000 126.200 5 75 955 9 70 70 3 200 120 0 25.0921 126.135 4 77 960 25.1072 126.078 T 72 962 10 56
1992172N07144 1992 40 WP MM BOBBIE 1992-06-28 18:00:00 TS 25.3750 126.625 75 955 tokyo main 464 464 OOOO__________ jtwc_wp WP021992 25.3000 126.700 95 2 25.4000 126.600 5 75 955 9 70 70 3 200 120 0 25.4000 126.600 4 77 960 25.4000 126.600 T 70 965 11 60
1992172N07144 1992 40 WP MM BOBBIE 1992-06-28 21:00:00 TS 25.6518 127.210 75 955 tokyo main 527 527 POPP__________ WP021992 25.5498 127.278 92 2 25.7000 127.200 5 75 955 9 70 70 3 200 120 0 25.7075 127.178 4 72 962 25.6499 127.185 T 70 965 12 63
1992172N07144 1992 40 WP MM BOBBIE 1992-06-29 00:00:00 TS 25.9250 127.825 75 960 tokyo main 590 580 OOOO__________ jtwc_wp WP021992 25.8000 127.900 90 2 26.0000 127.800 5 75 960 9 60 60 3 200 120 0 26.0000 127.800 4 68 965 25.9000 127.800 T 70 965 12 64
1992172N07144 1992 40 WP MM BOBBIE 1992-06-29 03:00:00 TS 26.1922 128.425 75 960 tokyo main 580 539 POPP__________ WP021992 26.0346 128.528 87 2 26.3000 128.400 5 75 960 9 60 60 3 200 120 0 26.2496 128.386 4 68 965 26.1846 128.385 T 65 967 12 64
1992172N07144 1992 40 WP MM BOBBIE 1992-06-29 06:00:00 TS 26.4500 129.000 70 965 tokyo main 528 489 OOOO__________ jtwc_wp WP021992 26.3000 129.200 85 2 26.5000 128.800 5 70 965 9 60 60 3 200 120 0 26.5000 129.000 4 68 965 26.5000 129.000 STS 60 970 13 65
1992172N07144 1992 40 WP MM BOBBIE 1992-06-29 09:00:00 TS 26.7350 129.711 70 965 tokyo main 489 436 POPP__________ WP021992 26.6123 129.936 82 1 26.7000 129.500 5 70 965 9 60 60 4 200 120 0 26.7928 129.715 4 63 970 26.8350 129.693 STS 57 972 14 64
1992172N07144 1992 40 WP MM BOBBIE 1992-06-29 12:00:00 TS 27.0933 130.453 65 970 tokyo main 435 402 OOOO__________ jtwc_wp WP021992 27.0000 130.700 80 1 27.1000 130.300 5 65 970 9 50 50 4 200 120 0 27.1000 130.400 3 58 975 27.2000 130.400 STS 55 975 14 59
1992172N07144 1992 40 WP MM BOBBIE 1992-06-29 15:00:00 TS 27.4671 131.073 65 970 tokyo main 392 356 POPP__________ WP021992 27.4621 131.451 75 1 27.5000 130.900 5 65 970 9 50 50 3 200 120 0 27.3762 130.872 3 58 975 27.5929 131.064 STS 55 975 13 54
1992172N07144 1992 40 WP MM BOBBIE 1992-06-29 18:00:00 TS 27.8769 131.669 60 975 tokyo main 359 343 OOOO__________ jtwc_wp WP021992 28.0000 132.200 70 1 27.9000 131.400 4 60 975 9 50 50 3 200 120 0 27.7000 131.400 3 58 975 28.0000 131.700 STS 55 975 15 55
1992172N07144 1992 40 WP MM BOBBIE 1992-06-29 21:00:00 TS 28.3281 132.450 60 975 tokyo main 343 337 POP___________ WP021992 28.5319 132.937 65 1 28.4000 132.200 4 60 975 9 40 40 3 200 120 0 28.0523 132.212 3 58 975 STS 18 56
1992172N07144 1992 40 WP MM BOBBIE 1992-06-30 00:00:00 TS 28.8667 133.333 60 975 tokyo main 333 332 OOO___________ jtwc_wp WP021992 29.2000 133.700 60 0 28.8000 133.100 4 60 975 9 40 40 3 200 120 0 28.6000 133.200 3 58 975 21 50
1992172N07144 1992 40 WP MM BOBBIE 1992-06-30 03:00:00 TS 29.6726 134.309 55 980 tokyo main 335 297 POP___________ WP021992 30.0812 134.485 57 0 29.5000 134.200 4 55 980 9 40 40 3 200 120 0 29.4367 134.242 3 53 977 26 44
1992172N07144 1992 40 WP MM BOBBIE 1992-06-30 06:00:00 TS 30.7333 135.400 55 980 tokyo main 300 197 OOO___________ jtwc_wp WP021992 31.1000 135.400 55 0 30.6000 135.400 4 55 980 9 40 40 3 200 120 0 30.5000 135.400 3 48 980 29 42
1992172N07144 1992 40 WP MM BOBBIE 1992-06-30 09:00:00 TS 31.8087 136.569 55 980 tokyo main 193 171 POP___________ WP021992 32.0941 136.442 50 0 31.7000 136.600 4 55 980 9 40 40 3 220 140 0 31.6320 136.665 3 48 980 31 44
1992172N07144 1992 40 WP MM BOBBIE 1992-06-30 12:00:00 TS 33.0000 137.933 55 980 tokyo main 171 52 OOO___________ jtwc_wp WP021992 33.2000 137.800 45 0 32.9000 138.000 4 55 980 9 40 40 3 240 150 0 32.9000 138.000 3 48 980 35 43
1992172N07144 1992 40 WP MM BOBBIE 1992-06-30 15:00:00 TS 34.3369 139.418 50 980 tokyo main 57 0 POP___________ WP021992 34.5060 139.455 45 0 34.2000 139.500 4 50 980 0 3 240 150 0 34.3048 139.301 3 48 980 37 43
1992172N07144 1992 40 WP MM BOBBIE 1992-06-30 18:00:00 TS 35.7273 140.973 50 980 tokyo main 9 9 OOO___________ jtwc_wp WP021992 35.8000 141.700 45 0 35.7000 140.700 4 50 980 0 3 240 150 0 35.7000 140.700 3 48 980 37 45
1992172N07144 1992 40 WP MM BOBBIE 1992-06-30 21:00:00 MX 36.9344 142.638 984 tokyo main 142 142 POP___________ WP021992 36.8577 144.672 45 0 37.0000 142.000 6 984 0 0 0 36.9071 142.258 3 48 982 36 51
1992172N07144 1992 40 WP MM BOBBIE 1992-07-01 00:00:00 ET 37.9667 144.456 984 tokyo main 259 259 OOO___________ jtwc_wp WP021992 37.7000 148.100 45 0 38.0000 144.000 6 984 0 0 0 38.0000 144.000 9 48 984 34 51
1992172N07144 1992 40 WP MM BOBBIE 1992-07-01 03:00:00 ET 39.0842 146.042 main 337 337 _PP___________ WP021992 -1 39.0685 146.065 6 984 0 0 39.0999 146.019 9 48 984 34 54
1992172N07144 1992 40 WP MM BOBBIE 1992-07-01 06:00:00 ET 40.0000 148.000 984 tokyo main 411 410 _OO___________ -1 40.0000 148.000 6 984 0 0 0 40.0000 148.000 9 48 984 31 60
1992172N07144 1992 40 WP MM BOBBIE 1992-07-01 09:00:00 ET 40.6444 149.579 main 444 443 _PP___________ -1 40.6444 149.579 6 984 0 0 40.6444 149.579 9 48 984 25 66
1992172N07144 1992 40 WP MM BOBBIE 1992-07-01 12:00:00 ET 41.0000 151.000 984 tokyo main 504 504 _OO___________ -1 41.0000 151.000 6 984 0 0 0 41.0000 151.000 9 48 984 22 79
1992172N07144 1992 40 WP MM BOBBIE 1992-07-01 15:00:00 ET 41.0697 152.430 main 545 545 _PP___________ -1 41.0697 152.430 6 984 0 0 41.0697 152.430 9 48 984 23 90
1992172N07144 1992 40 WP MM BOBBIE 1992-07-01 18:00:00 ET 41.0000 154.000 984 tokyo main 617 617 _OO___________ -1 41.0000 154.000 6 984 0 0 0 41.0000 154.000 9 48 984 26 92
1992172N07144 1992 40 WP MM BOBBIE 1992-07-01 21:00:00 ET 40.9958 155.851 main 713 713 _PP___________ -1 40.9958 155.851 6 984 0 0 40.9958 155.851 9 48 984 30 90
1992172N07144 1992 40 WP MM BOBBIE 1992-07-02 00:00:00 ET 41.0000 158.000 984 tokyo main 831 831 _OO___________ -1 41.0000 158.000 6 984 0 0 0 41.0000 158.000 9 48 984 35 91
1992172N07144 1992 40 WP MM BOBBIE 1992-07-02 03:00:00 ET 40.9244 160.434 main 988 988 _PP___________ -1 40.9244 160.434 6 984 0 0 40.9244 160.434 9 48 984 38 90
1992172N07144 1992 40 WP MM BOBBIE 1992-07-02 06:00:00 ET 41.0000 163.000 984 tokyo main 1157 1157 _OO___________ -1 41.0000 163.000 6 984 0 0 0 41.0000 163.000 9 48 984 39 83
1992172N07144 1992 40 WP MM BOBBIE 1992-07-02 09:00:00 ET 41.4243 165.568 main 1229 1224 _PP___________ -1 41.4243 165.568 6 986 0 0 41.4243 165.568 9 43 986 39 75
1992172N07144 1992 40 WP MM BOBBIE 1992-07-02 12:00:00 ET 42.0000 168.000 988 tokyo main 1298 1298 _OO___________ -1 42.0000 168.000 6 988 0 0 0 42.0000 168.000 9 38 988 35 73
1992172N07144 1992 40 WP MM BOBBIE 1992-07-02 15:00:00 ET 42.4542 170.091 main 1363 1363 _PP___________ -1 42.4174 170.087 6 989 0 0 42.5278 170.100 9 38 989 31 71
1992172N07144 1992 40 WP MM BOBBIE 1992-07-02 18:00:00 ET 43.0000 172.000 990 tokyo main 1421 1421 _OO___________ -1 43.0000 172.000 6 990 0 0 0 43.0000 172.000 9 38 990 33 62
1992172N07144 1992 40 WP MM BOBBIE 1992-07-02 21:00:00 ET 44.0000 174.064 main 1434 1405 _P____________ -1 44.0000 174.064 6 991 0 0 9 35 55
1992172N07144 1992 40 WP MM BOBBIE 1992-07-03 00:00:00 ET 45.0000 176.000 992 tokyo main 1400 1285 _O____________ -1 45.0000 176.000 6 992 0 0 0 29 60
1992172N07144 1992 40 WP MM BOBBIE 1992-07-03 03:00:00 ET 45.4198 177.599 main 1280 1170 _P____________ -1 45.4198 177.599 6 992 0 0 23 65
1992172N07144 1992 40 WP MM BOBBIE 1992-07-03 06:00:00 ET 46.0000 179.000 992 tokyo main 1156 987 _O____________ -1 46.0000 179.000 6 992 0 0 0 27 47
1992172N07144 1992 40 EP CP BOBBIE 1992-07-03 09:00:00 ET 47.2808 180.441 main 979 779 _P____________ -1 47.2808 -179.559 6 993 0 0 36 34
1992172N07144 1992 40 EP CP BOBBIE 1992-07-03 12:00:00 ET 49.0000 182.000 main 766 _O____________ -1 49.0000 182.000 6 994 0 0 0 40 31

デジタル台風データ・検索

IBTrACS Databaseについて

本データベースは、米国NOAAが公開する1842年以降の世界の熱帯低気圧のベストトラックデータアーカイブInternational Best Track Archive for Climate Stewardship (IBTrACS)を、ウェブで閲覧しやすい形式に変換したものです。

最終更新日:2021-10-21